Pagrindinis puslapis
METAR-TAF:

METAR-TAF

Oro uostai :

Kvala Terenganu, Malaizija

platuma: 05-22-53N, ilguma: 103-06-17E, Aukštis: 6 m

Dabartinis oras

Ataskaita buvo paskelbta 1 valandą ir 5 minutes, ne 23:00 UTC
Vėjas 3 kt iš Pietų/Pietvakarių, svyruoja nuo Pietų/Pietryčių ir Vakarų
Temperatūra 23°C
Drėgmė 100%
Slėgis 1007 hPa
Matomumas: 9000 m
Mažai debesys ne aukštis 2200 ft

METAR: WMKN 262300Z 20003KT 160V260 9000 FEW022 23/23 Q1007

Laikas: 08:05 (00:05 UTC)

Prognozė

Ataskaita buvo paskelbta 1 valandą ir 5 minutes, ne 23:00 UTC
Prognozė galioja nuo 27 metu 00 UTC su 28 metu 00 UTC
Vėjas 3 kt nuo kintamojo kryptimis
Matomumas 10 km arba daugiau
Mažai debesys ne aukštis 2200 ft
Tapsmas
nuo 27 metu 03 UTC su 27 metu 05 UTC
Vėjas 10 kt iš Šiaurės/Šiaurės Rytų
Mažai debesys ne aukštis 1800 ft
Tapsmas
nuo 27 metu 12 UTC su 27 metu 13 UTC
Vėjas 3 kt nuo kintamojo kryptimis
Mažai debesys ne aukštis 2200 ft

TAF: WMKN 262300Z 2700/2800 VRB03KT 9999 FEW022 BECMG 2703/2705 03010KT FEW018 BECMG 2712/2713 VRB03KT FEW022

Orai ataskaitas ir orų prognozės (METAR, TAF).

turimą stotys yra geltonos ir raudonos taškus žemėlapyje.

Perkelti pele per norėdami pamatyti stoties vardą.

Tada spustelėkite, norėdami matyti oro stebėjimo ir prognozės.

Norėdami pakeisti žemėlapį: spustelėkite ant žalios mygtukų su juodo kryžiaus žemyn,; žalią mygtuką su brūkšneliu, jei norite nutolinti; arba žalių rodyklių gretimoms žemėlapius.


METAR-TAF: